Terminal Aerodrome Forecast
Issued by NWS

Home | Current Version | Previous Version | Text Only | Print | Product List | Glossary On
Versions: 1 2 3 4 5 6 7 8 9 10 11 12 13 14
000
FTUS44 KEWX 231721
TAFSSF
TAF
KSSF 231721Z 2318/2418 09006KT P6SM FEW150
     FM232100 10007KT P6SM VCSH BKN050
     FM240400 16005KT P6SM BKN100=

USA.gov is the U.S. government's official web portal to all federal, state and local government web resources and services.